Wellington, CO

9:58 AM MST on January 25, 2015 (GMT -0700)
La Luna Dairy | Change Station
CLOSE
Current Station
Personal Weather Station
Location: Wellington, CO
Elevation: 5250 ft
Nearby Weather Stations

Elev 5250 ft 40.72 °N, 105.02 °W | Updated 2 minutes ago

Mostly Cloudy
Mostly Cloudy
52.0 °F
Feels Like 52.0 °F
N
7.0
Wind Variable Wind from WNW
Gusts 17.0 mph

Today
High -- | Low -- °F
--% Chance of Precip.
Yesterday
High -- | Low -- °F
Precip. -- in
7:16 AM 5:08 PM
Waxing Crescent, 34% visible
Pressure 30.18 in
Visibility 10.0 miles
Clouds Clear
Dew Point 30 °F
Humidity 43%
Rainfall -999.00 in
Snow Depth Not available.
UV 2 out of 12
Pollen 2.30 out of 12
Air Quality Not available.
Flu Activity Not available.
METAR KFNL 251655Z AUTO 00000KT 10SM CLR 04/M02 A3018 RMK AO1

More Conditions Fewer Conditions

Pressure 30.18 in
Visibility 10.0 miles
Clouds Clear
Dew Point 30 °F
Humidity 43%
Rainfall -999.00 in
Snow Depth Not available.
UV 2 out of 12
Pollen 2.30 out of 12
Air Quality Not available.
Flu Activity Not available.
METAR KFNL 251655Z AUTO 00000KT 10SM CLR 04/M02 A3018 RMK AO1

More Conditions Fewer Conditions

10-Day Weather Forecast

Almanac

Astronomy

Jan. 25, 2015 Rise Set
Actual Time
Civil Twilight
Nautical Twilight
Astronomical Twilight
Moon
Length of Visible Light
Length of Day
Tomorrow will be .
, % of the Moon is Illuminated

Today's Extremes

State Highs State Lows

Community

WunderPhotos

Upload Photos

1,789,963 photos uploaded!

WunderBlogs® & News

Nearby

Air Quality

  Air Quality AQ Index Pollutant
Not available.

Snow Depth

Station Depth Elevation

Earthquake Activity

City Distance Mag. Time & Date
Minimum magnitude displayed is 2.5.

Coastal Water Temperatures

Place Temperature

Nearby Weather Stations